Station Historical Data
Daily Summary for February 28, 2017 Units:  Both    English   Metric
« Previous Day
Next Day »
Daily Weekly Monthly Yearly Custom
  High: Low: Average:
Temperature: 59.5 °F /  15.3 °C 33.1 °F /  0.6 °C 48.3 °F /  9.1 °C
Dew Point: 50.3 °F /  10.2 °C 26.4 °F /  -3.1 °C 37.4 °F /  3 °C
Humidity: 83% 48% 67%
Wind Speed: 14.0mph /  22.5km/h - 3.1mph /  5km/h
Wind Gust: 18.0mph /  29km/h - -
Wind- - South
Pressure: 30.30 in /  1026 hPa 29.72 in /  1006.3 hPa -
Precipitation: 0.00 in /  0 mm    
Historical Graphs
 
 
Tabular Data for February 28, 2017
Time Temperature Dew Point Pressure Wind Wind Speed Wind Gust Humidity Rainfall Rate (Hourly)
00:04 35.5 °F /  1.9 °C 27.0 °F /  -2.8 °C 30.29in /  1025.6hPa Calm     71% 0.00in /  0mm
00:09 35.6 °F /  2 °C 27.1 °F /  -2.7 °C 30.29in /  1025.6hPa Calm     71% 0.00in /  0mm
00:14 35.4 °F /  1.9 °C 27.3 °F /  -2.6 °C 30.29in /  1025.6hPa South 2.0mph /  3.2km/h 5.0mph /  8km/h 72% 0.00in /  0mm
00:19 35.4 °F /  1.9 °C 27.3 °F /  -2.6 °C 30.29in /  1025.6hPa SSE 1.0mph /  1.6km/h 5.0mph /  8km/h 72% 0.00in /  0mm
00:24 35.3 °F /  1.8 °C 27.2 °F /  -2.7 °C 30.30in /  1026hPa Calm   2.0mph /  3.2km/h 72% 0.00in /  0mm
00:29 35.1 °F /  1.7 °C 27.0 °F /  -2.8 °C 30.30in /  1026hPa Calm   1.0mph /  1.6km/h 72% 0.00in /  0mm
00:34 35.2 °F /  1.8 °C 27.1 °F /  -2.7 °C 30.30in /  1026hPa Calm     72% 0.00in /  0mm
00:39 35.1 °F /  1.7 °C 27.0 °F /  -2.8 °C 30.30in /  1026hPa Calm     72% 0.00in /  0mm
00:44 35.0 °F /  1.7 °C 26.9 °F /  -2.8 °C 30.30in /  1026hPa Calm     72% 0.00in /  0mm
00:49 35.0 °F /  1.7 °C 27.2 °F /  -2.7 °C 30.30in /  1026hPa Calm     73% 0.00in /  0mm
00:54 35.0 °F /  1.7 °C 27.2 °F /  -2.7 °C 30.30in /  1026hPa Calm   2.0mph /  3.2km/h 73% 0.00in /  0mm
00:59 34.8 °F /  1.6 °C 27.0 °F /  -2.8 °C 30.30in /  1026hPa Calm   2.0mph /  3.2km/h 73% 0.00in /  0mm
01:04 34.6 °F /  1.4 °C 26.8 °F /  -2.9 °C 30.30in /  1026hPa Calm     73% 0.00in /  0mm
01:09 34.3 °F /  1.3 °C 26.9 °F /  -2.8 °C 30.30in /  1026hPa ESE 1.0mph /  1.6km/h 3.0mph /  4.8km/h 74% 0.00in /  0mm
01:14 34.3 °F /  1.3 °C 26.9 °F /  -2.8 °C 30.30in /  1026hPa Calm   2.0mph /  3.2km/h 74% 0.00in /  0mm
01:19 34.0 °F /  1.1 °C 26.6 °F /  -3 °C 30.30in /  1026hPa Calm   2.0mph /  3.2km/h 74% 0.00in /  0mm
01:24 33.9 °F /  1.1 °C 26.8 °F /  -2.9 °C 30.30in /  1026hPa Calm     75% 0.00in /  0mm
01:29 34.0 °F /  1.1 °C 26.9 °F /  -2.8 °C 30.30in /  1026hPa Calm     75% 0.00in /  0mm
01:34 34.1 °F /  1.2 °C 27.0 °F /  -2.8 °C 30.30in /  1026hPa Calm     75% 0.00in /  0mm
01:39 34.1 °F /  1.2 °C 27.0 °F /  -2.8 °C 30.30in /  1026hPa Calm     75% 0.00in /  0mm
01:44 34.1 °F /  1.2 °C 27.0 °F /  -2.8 °C 30.30in /  1026hPa Calm     75% 0.00in /  0mm
01:49 33.9 °F /  1.1 °C 26.8 °F /  -2.9 °C 30.30in /  1026hPa Calm     75% 0.00in /  0mm
01:54 33.8 °F /  1 °C 26.7 °F /  -2.9 °C 30.30in /  1026hPa Calm     75% 0.00in /  0mm
01:59 33.5 °F /  0.8 °C 26.4 °F /  -3.1 °C 30.30in /  1026hPa Calm     75% 0.00in /  0mm
02:04 33.5 °F /  0.8 °C 26.7 °F /  -2.9 °C 30.30in /  1026hPa Calm     76% 0.00in /  0mm
02:09 33.6 °F /  0.9 °C 26.8 °F /  -2.9 °C 30.29in /  1025.6hPa Calm     76% 0.00in /  0mm
02:14 33.8 °F /  1 °C 27.0 °F /  -2.8 °C 30.29in /  1025.6hPa Calm   1.0mph /  1.6km/h 76% 0.00in /  0mm
02:19 33.9 °F /  1.1 °C 27.1 °F /  -2.7 °C 30.29in /  1025.6hPa Calm   1.0mph /  1.6km/h 76% 0.00in /  0mm
02:24 33.9 °F /  1.1 °C 26.8 °F /  -2.9 °C 30.29in /  1025.6hPa Calm     75% 0.00in /  0mm
02:29 33.8 °F /  1 °C 27.0 °F /  -2.8 °C 30.29in /  1025.6hPa Calm     76% 0.00in /  0mm
02:34 33.9 °F /  1.1 °C 27.1 °F /  -2.7 °C 30.29in /  1025.6hPa Calm   1.0mph /  1.6km/h 76% 0.00in /  0mm
02:39 34.0 °F /  1.1 °C 27.2 °F /  -2.7 °C 30.29in /  1025.6hPa Calm   1.0mph /  1.6km/h 76% 0.00in /  0mm
02:44 34.1 °F /  1.2 °C 27.0 °F /  -2.8 °C 30.29in /  1025.6hPa Calm   2.0mph /  3.2km/h 75% 0.00in /  0mm
02:49 34.1 °F /  1.2 °C 27.0 °F /  -2.8 °C 30.29in /  1025.6hPa Calm   2.0mph /  3.2km/h 75% 0.00in /  0mm
02:54 33.9 °F /  1.1 °C 26.8 °F /  -2.9 °C 30.29in /  1025.6hPa Calm   2.0mph /  3.2km/h 75% 0.00in /  0mm
02:59 33.7 °F /  0.9 °C 26.9 °F /  -2.8 °C 30.29in /  1025.6hPa Calm   1.0mph /  1.6km/h 76% 0.00in /  0mm
03:04 33.7 °F /  0.9 °C 26.9 °F /  -2.8 °C 30.29in /  1025.6hPa Calm   2.0mph /  3.2km/h 76% 0.00in /  0mm
03:09 33.5 °F /  0.8 °C 26.7 °F /  -2.9 °C 30.29in /  1025.6hPa Calm   2.0mph /  3.2km/h 76% 0.00in /  0mm
03:14 33.2 °F /  0.7 °C 26.8 °F /  -2.9 °C 30.29in /  1025.6hPa Calm     77% 0.00in /  0mm
03:19 33.2 °F /  0.7 °C 26.8 °F /  -2.9 °C 30.29in /  1025.6hPa Calm     77% 0.00in /  0mm
03:24 33.3 °F /  0.7 °C 26.9 °F /  -2.8 °C 30.29in /  1025.6hPa Calm   1.0mph /  1.6km/h 77% 0.00in /  0mm
03:29 33.4 °F /  0.8 °C 27.0 °F /  -2.8 °C 30.29in /  1025.6hPa Calm     77% 0.00in /  0mm
03:34 33.3 °F /  0.7 °C 26.9 °F /  -2.8 °C 30.29in /  1025.6hPa Calm     77% 0.00in /  0mm
03:39 33.1 °F /  0.6 °C 27.0 °F /  -2.8 °C 30.28in /  1025.3hPa Calm     78% 0.00in /  0mm
03:44 33.2 °F /  0.7 °C 27.1 °F /  -2.7 °C 30.28in /  1025.3hPa Calm     78% 0.00in /  0mm
03:49 33.3 °F /  0.7 °C 27.2 °F /  -2.7 °C 30.28in /  1025.3hPa Calm     78% 0.00in /  0mm
03:54 33.6 °F /  0.9 °C 27.5 °F /  -2.5 °C 30.28in /  1025.3hPa Calm     78% 0.00in /  0mm
03:59 33.8 °F /  1 °C 27.7 °F /  -2.4 °C 30.28in /  1025.3hPa Calm     78% 0.00in /  0mm
04:04 33.8 °F /  1 °C 27.7 °F /  -2.4 °C 30.28in /  1025.3hPa Calm     78% 0.00in /  0mm
04:09 33.8 °F /  1 °C 27.7 °F /  -2.4 °C 30.28in /  1025.3hPa Calm     78% 0.00in /  0mm
04:14 33.9 °F /  1.1 °C 27.8 °F /  -2.3 °C 30.28in /  1025.3hPa Calm     78% 0.00in /  0mm
04:19 34.0 °F /  1.1 °C 27.9 °F /  -2.3 °C 30.28in /  1025.3hPa Calm     78% 0.00in /  0mm
04:24 34.1 °F /  1.2 °C 28.3 °F /  -2.1 °C 30.28in /  1025.3hPa Calm     79% 0.00in /  0mm
04:29 34.5 °F /  1.4 °C 28.3 °F /  -2.1 °C 30.27in /  1024.9hPa Calm     78% 0.00in /  0mm
04:34 35.0 °F /  1.7 °C 28.8 °F /  -1.8 °C 30.27in /  1024.9hPa Calm     78% 0.00in /  0mm
04:39 35.5 °F /  1.9 °C 29.0 °F /  -1.7 °C 30.27in /  1024.9hPa Calm     77% 0.00in /  0mm
04:44 35.5 °F /  1.9 °C 29.0 °F /  -1.7 °C 30.27in /  1024.9hPa Calm     77% 0.00in /  0mm
04:49 35.5 °F /  1.9 °C 29.0 °F /  -1.7 °C 30.27in /  1024.9hPa Calm     77% 0.00in /  0mm
04:54 35.7 °F /  2.1 °C 28.9 °F /  -1.7 °C 30.26in /  1024.6hPa Calm     76% 0.00in /  0mm
04:59 35.7 °F /  2.1 °C 28.9 °F /  -1.7 °C 30.27in /  1024.9hPa Calm     76% 0.00in /  0mm
05:04 35.6 °F /  2 °C 28.8 °F /  -1.8 °C 30.26in /  1024.6hPa Calm     76% 0.00in /  0mm
05:09 35.6 °F /  2 °C 29.1 °F /  -1.6 °C 30.26in /  1024.6hPa Calm     77% 0.00in /  0mm
05:14 35.4 °F /  1.9 °C 28.9 °F /  -1.7 °C 30.26in /  1024.6hPa Calm     77% 0.00in /  0mm
05:19 35.5 °F /  1.9 °C 29.0 °F /  -1.7 °C 30.26in /  1024.6hPa Calm     77% 0.00in /  0mm
05:24 35.7 °F /  2.1 °C 29.2 °F /  -1.6 °C 30.26in /  1024.6hPa Calm     77% 0.00in /  0mm
05:29 35.9 °F /  2.2 °C 29.4 °F /  -1.4 °C 30.26in /  1024.6hPa Calm     77% 0.00in /  0mm
05:34 35.9 °F /  2.2 °C 29.4 °F /  -1.4 °C 30.26in /  1024.6hPa Calm     77% 0.00in /  0mm
05:39 35.8 °F /  2.1 °C 29.3 °F /  -1.5 °C 30.26in /  1024.6hPa Calm     77% 0.00in /  0mm
05:44 35.8 °F /  2.1 °C 29.3 °F /  -1.5 °C 30.26in /  1024.6hPa Calm     77% 0.00in /  0mm
05:49 36.0 °F /  2.2 °C 29.8 °F /  -1.2 °C 30.26in /  1024.6hPa Calm     78% 0.00in /  0mm
05:54 36.1 °F /  2.3 °C 29.9 °F /  -1.2 °C 30.26in /  1024.6hPa Calm   1.0mph /  1.6km/h 78% 0.00in /  0mm
05:59 35.9 °F /  2.2 °C 29.7 °F /  -1.3 °C 30.26in /  1024.6hPa Calm   2.0mph /  3.2km/h 78% 0.00in /  0mm
06:04 35.8 °F /  2.1 °C 29.6 °F /  -1.3 °C 30.26in /  1024.6hPa Calm   2.0mph /  3.2km/h 78% 0.00in /  0mm
06:09 35.8 °F /  2.1 °C 29.9 °F /  -1.2 °C 30.26in /  1024.6hPa ESE 1.0mph /  1.6km/h 3.0mph /  4.8km/h 79% 0.00in /  0mm
06:14 35.9 °F /  2.2 °C 30.0 °F /  -1.1 °C 30.26in /  1024.6hPa SE 1.0mph /  1.6km/h 3.0mph /  4.8km/h 79% 0.00in /  0mm
06:19 35.9 °F /  2.2 °C 30.0 °F /  -1.1 °C 30.26in /  1024.6hPa SE 1.0mph /  1.6km/h 3.0mph /  4.8km/h 79% 0.00in /  0mm
06:24 36.1 °F /  2.3 °C 30.2 °F /  -1 °C 30.25in /  1024.3hPa Calm   2.0mph /  3.2km/h 79% 0.00in /  0mm
06:29 36.1 °F /  2.3 °C 30.5 °F /  -0.8 °C 30.25in /  1024.3hPa SE 1.0mph /  1.6km/h 3.0mph /  4.8km/h 80% 0.00in /  0mm
06:34 36.1 °F /  2.3 °C 30.5 °F /  -0.8 °C 30.25in /  1024.3hPa Calm   3.0mph /  4.8km/h 80% 0.00in /  0mm
06:39 36.3 °F /  2.4 °C 30.7 °F /  -0.7 °C 30.25in /  1024.3hPa Calm   2.0mph /  3.2km/h 80% 0.00in /  0mm
06:44 36.3 °F /  2.4 °C 30.7 °F /  -0.7 °C 30.25in /  1024.3hPa Calm     80% 0.00in /  0mm
06:49 36.2 °F /  2.3 °C 30.6 °F /  -0.8 °C 30.24in /  1023.9hPa Calm     80% 0.00in /  0mm
06:54 36.2 °F /  2.3 °C 30.9 °F /  -0.6 °C 30.24in /  1023.9hPa Calm     81% 0.00in /  0mm
06:59 36.1 °F /  2.3 °C 30.8 °F /  -0.7 °C 30.24in /  1023.9hPa Calm     81% 0.00in /  0mm
07:04 36.1 °F /  2.3 °C 31.1 °F /  -0.5 °C 30.24in /  1023.9hPa Calm   3.0mph /  4.8km/h 82% 0.00in /  0mm
07:09 36.2 °F /  2.3 °C 31.2 °F /  -0.4 °C 30.24in /  1023.9hPa ESE 1.0mph /  1.6km/h 3.0mph /  4.8km/h 82% 0.00in /  0mm
07:14 36.4 °F /  2.4 °C 31.4 °F /  -0.3 °C 30.24in /  1023.9hPa ESE 1.0mph /  1.6km/h 2.0mph /  3.2km/h 82% 0.00in /  0mm
07:19 36.5 °F /  2.5 °C 31.5 °F /  -0.3 °C 30.24in /  1023.9hPa ESE 1.0mph /  1.6km/h 3.0mph /  4.8km/h 82% 0.00in /  0mm
07:24 36.6 °F /  2.6 °C 31.9 °F /  -0.1 °C 30.23in /  1023.6hPa ESE 1.0mph /  1.6km/h 3.0mph /  4.8km/h 83% 0.00in /  0mm
07:29 36.8 °F /  2.7 °C 32.1 °F /  0.1 °C 30.23in /  1023.6hPa SE 1.0mph /  1.6km/h 3.0mph /  4.8km/h 83% 0.00in /  0mm
07:34 37.0 °F /  2.8 °C 32.3 °F /  0.2 °C 30.23in /  1023.6hPa ESE 1.0mph /  1.6km/h 3.0mph /  4.8km/h 83% 0.00in /  0mm
07:39 37.2 °F /  2.9 °C 32.5 °F /  0.3 °C 30.23in /  1023.6hPa SSE 1.0mph /  1.6km/h 4.0mph /  6.4km/h 83% 0.00in /  0mm
07:44 37.4 °F /  3 °C 32.7 °F /  0.4 °C 30.23in /  1023.6hPa SSE 1.0mph /  1.6km/h 3.0mph /  4.8km/h 83% 0.00in /  0mm
07:49 37.7 °F /  3.2 °C 33.0 °F /  0.6 °C 30.24in /  1023.9hPa SE 1.0mph /  1.6km/h 3.0mph /  4.8km/h 83% 0.00in /  0mm
07:54 37.9 °F /  3.3 °C 33.2 °F /  0.7 °C 30.23in /  1023.6hPa SE 2.0mph /  3.2km/h 4.0mph /  6.4km/h 83% 0.00in /  0mm
07:59 38.0 °F /  3.3 °C 33.3 °F /  0.7 °C 30.23in /  1023.6hPa ESE 1.0mph /  1.6km/h 4.0mph /  6.4km/h 83% 0.00in /  0mm
08:04 38.3 °F /  3.5 °C 33.6 °F /  0.9 °C 30.23in /  1023.6hPa ESE 1.0mph /  1.6km/h 4.0mph /  6.4km/h 83% 0.00in /  0mm
08:09 38.6 °F /  3.7 °C 33.9 °F /  1.1 °C 30.23in /  1023.6hPa SE 1.0mph /  1.6km/h 3.0mph /  4.8km/h 83% 0.00in /  0mm
08:14 38.8 °F /  3.8 °C 34.1 °F /  1.2 °C 30.23in /  1023.6hPa SE 1.0mph /  1.6km/h 3.0mph /  4.8km/h 83% 0.00in /  0mm
08:19 39.0 °F /  3.9 °C 34.3 °F /  1.3 °C 30.24in /  1023.9hPa Calm   4.0mph /  6.4km/h 83% 0.00in /  0mm
08:24 39.3 °F /  4.1 °C 34.6 °F /  1.4 °C 30.24in /  1023.9hPa SSE 1.0mph /  1.6km/h 4.0mph /  6.4km/h 83% 0.00in /  0mm
08:29 39.7 °F /  4.3 °C 35.0 °F /  1.7 °C 30.23in /  1023.6hPa SSE 2.0mph /  3.2km/h 4.0mph /  6.4km/h 83% 0.00in /  0mm
08:34 40.0 °F /  4.4 °C 34.9 °F /  1.6 °C 30.23in /  1023.6hPa SSE 2.0mph /  3.2km/h 5.0mph /  8km/h 82% 0.00in /  0mm
08:39 40.2 °F /  4.6 °C 35.1 °F /  1.7 °C 30.23in /  1023.6hPa SE 4.0mph /  6.4km/h 5.0mph /  8km/h 82% 0.00in /  0mm
08:44 40.6 °F /  4.8 °C 35.5 °F /  1.9 °C 30.23in /  1023.6hPa SSE 2.0mph /  3.2km/h 7.0mph /  11.3km/h 82% 0.00in /  0mm
08:49 40.9 °F /  4.9 °C 35.5 °F /  1.9 °C 30.22in /  1023.2hPa SE 4.0mph /  6.4km/h 5.0mph /  8km/h 81% 0.00in /  0mm
08:54 41.0 °F /  5 °C 35.6 °F /  2 °C 30.22in /  1023.2hPa SE 2.0mph /  3.2km/h 5.0mph /  8km/h 81% 0.00in /  0mm
08:59 41.3 °F /  5.2 °C 35.9 °F /  2.2 °C 30.22in /  1023.2hPa ESE 3.0mph /  4.8km/h 4.0mph /  6.4km/h 81% 0.00in /  0mm
09:04 41.6 °F /  5.3 °C 36.2 °F /  2.3 °C 30.22in /  1023.2hPa SSE 1.0mph /  1.6km/h 4.0mph /  6.4km/h 81% 0.00in /  0mm
09:09 41.9 °F /  5.5 °C 36.5 °F /  2.5 °C 30.22in /  1023.2hPa SSE 2.0mph /  3.2km/h 7.0mph /  11.3km/h 81% 0.00in /  0mm
09:14 42.0 °F /  5.6 °C 36.3 °F /  2.4 °C 30.22in /  1023.2hPa SE 2.0mph /  3.2km/h 7.0mph /  11.3km/h 80% 0.00in /  0mm
09:19 42.2 °F /  5.7 °C 36.5 °F /  2.5 °C 30.22in /  1023.2hPa SSE 2.0mph /  3.2km/h 5.0mph /  8km/h 80% 0.00in /  0mm
09:24 42.7 °F /  5.9 °C 37.0 °F /  2.8 °C 30.22in /  1023.2hPa SSE 2.0mph /  3.2km/h 5.0mph /  8km/h 80% 0.00in /  0mm
09:29 42.8 °F /  6 °C 37.1 °F /  2.8 °C 30.22in /  1023.2hPa SSE 4.0mph /  6.4km/h 6.0mph /  9.7km/h 80% 0.00in /  0mm
09:34 43.0 °F /  6.1 °C 36.9 °F /  2.7 °C 30.21in /  1022.9hPa South 3.0mph /  4.8km/h 5.0mph /  8km/h 79% 0.00in /  0mm
09:39 43.1 °F /  6.2 °C 37.0 °F /  2.8 °C 30.21in /  1022.9hPa SE 2.0mph /  3.2km/h 5.0mph /  8km/h 79% 0.00in /  0mm
09:44 43.3 °F /  6.3 °C 37.2 °F /  2.9 °C 30.20in /  1022.6hPa SSE 3.0mph /  4.8km/h 5.0mph /  8km/h 79% 0.00in /  0mm
09:49 43.5 °F /  6.4 °C 37.4 °F /  3 °C 30.20in /  1022.6hPa SSE 2.0mph /  3.2km/h 6.0mph /  9.7km/h 79% 0.00in /  0mm
09:54 43.8 °F /  6.6 °C 37.4 °F /  3 °C 30.21in /  1022.9hPa SSE 2.0mph /  3.2km/h 4.0mph /  6.4km/h 78% 0.00in /  0mm
09:59 44.2 °F /  6.8 °C 37.8 °F /  3.2 °C 30.20in /  1022.6hPa SE 1.0mph /  1.6km/h 3.0mph /  4.8km/h 78% 0.00in /  0mm
10:04 44.4 °F /  6.9 °C 38.0 °F /  3.3 °C 30.20in /  1022.6hPa SSE 3.0mph /  4.8km/h 5.0mph /  8km/h 78% 0.00in /  0mm
10:09 44.6 °F /  7 °C 37.8 °F /  3.2 °C 30.20in /  1022.6hPa SSW 2.0mph /  3.2km/h 4.0mph /  6.4km/h 77% 0.00in /  0mm
10:14 44.8 °F /  7.1 °C 38.0 °F /  3.3 °C 30.19in /  1022.2hPa SSE 3.0mph /  4.8km/h 4.0mph /  6.4km/h 77% 0.00in /  0mm
10:19 45.2 °F /  7.3 °C 38.1 °F /  3.4 °C 30.19in /  1022.2hPa SSE 2.0mph /  3.2km/h 4.0mph /  6.4km/h 76% 0.00in /  0mm
10:24 45.4 °F /  7.4 °C 38.3 °F /  3.5 °C 30.19in /  1022.2hPa SSE 2.0mph /  3.2km/h 4.0mph /  6.4km/h 76% 0.00in /  0mm
10:29 45.9 °F /  7.7 °C 38.8 °F /  3.8 °C 30.19in /  1022.2hPa SSE 2.0mph /  3.2km/h 4.0mph /  6.4km/h 76% 0.00in /  0mm
10:34 46.5 °F /  8.1 °C 39.0 °F /  3.9 °C 30.18in /  1021.9hPa SE 2.0mph /  3.2km/h 5.0mph /  8km/h 75% 0.00in /  0mm
10:39 46.9 °F /  8.3 °C 39.0 °F /  3.9 °C 30.16in /  1021.2hPa ESE 2.0mph /  3.2km/h 4.0mph /  6.4km/h 74% 0.00in /  0mm
10:44 47.4 °F /  8.6 °C 39.2 °F /  4 °C 30.15in /  1020.9hPa South 2.0mph /  3.2km/h 6.0mph /  9.7km/h 73% 0.00in /  0mm
10:49 48.1 °F /  8.9 °C 39.1 °F /  3.9 °C 30.13in /  1020.2hPa ESE 3.0mph /  4.8km/h 6.0mph /  9.7km/h 71% 0.00in /  0mm
10:54 48.7 °F /  9.3 °C 39.7 °F /  4.3 °C 30.13in /  1020.2hPa ESE 3.0mph /  4.8km/h 7.0mph /  11.3km/h 71% 0.00in /  0mm
10:59 49.4 °F /  9.7 °C 40.0 °F /  4.4 °C 30.12in /  1019.9hPa ESE 2.0mph /  3.2km/h 7.0mph /  11.3km/h 70% 0.00in /  0mm
11:04 49.9 °F /  9.9 °C 40.1 °F /  4.5 °C 30.12in /  1019.9hPa SSE 1.0mph /  1.6km/h 6.0mph /  9.7km/h 69% 0.00in /  0mm
11:09 50.4 °F /  10.2 °C 40.2 °F /  4.6 °C 30.11in /  1019.5hPa SE 4.0mph /  6.4km/h 5.0mph /  8km/h 68% 0.00in /  0mm
11:14 50.9 °F /  10.5 °C 39.9 °F /  4.4 °C 30.12in /  1019.9hPa South 4.0mph /  6.4km/h 7.0mph /  11.3km/h 66% 0.00in /  0mm
11:19 52.2 °F /  11.2 °C 40.4 °F /  4.7 °C 30.11in /  1019.5hPa SSE 4.0mph /  6.4km/h 8.0mph /  12.9km/h 64% 0.00in /  0mm
11:24 52.5 °F /  11.4 °C 40.7 °F /  4.8 °C 30.11in /  1019.5hPa SE 4.0mph /  6.4km/h 8.0mph /  12.9km/h 64% 0.00in /  0mm
11:29 53.3 °F /  11.8 °C 40.6 °F /  4.8 °C 30.11in /  1019.5hPa SSE 3.0mph /  4.8km/h 7.0mph /  11.3km/h 62% 0.00in /  0mm
11:34 54.6 °F /  12.6 °C 41.0 °F /  5 °C 30.12in /  1019.9hPa South 3.0mph /  4.8km/h 7.0mph /  11.3km/h 60% 0.00in /  0mm
11:39 54.7 °F /  12.6 °C 40.2 °F /  4.6 °C 30.12in /  1019.9hPa SSE 4.0mph /  6.4km/h 9.0mph /  14.5km/h 58% 0.00in /  0mm
11:44 56.0 °F /  13.3 °C 40.5 °F /  4.7 °C 30.12in /  1019.9hPa SSW 4.0mph /  6.4km/h 7.0mph /  11.3km/h 56% 0.00in /  0mm
11:49 55.6 °F /  13.1 °C 39.7 °F /  4.3 °C 30.11in /  1019.5hPa SSW 7.0mph /  11.3km/h 10.0mph /  16.1km/h 55% 0.00in /  0mm
11:54 55.4 °F /  13 °C 40.0 °F /  4.4 °C 30.11in /  1019.5hPa South 6.0mph /  9.7km/h 11.0mph /  17.7km/h 56% 0.00in /  0mm
11:59 55.4 °F /  13 °C 40.0 °F /  4.4 °C 30.11in /  1019.5hPa South 5.0mph /  8km/h 11.0mph /  17.7km/h 56% 0.00in /  0mm
12:04 56.1 °F /  13.4 °C 40.6 °F /  4.8 °C 30.11in /  1019.5hPa SSW 4.0mph /  6.4km/h 12.0mph /  19.3km/h 56% 0.00in /  0mm
12:09 56.0 °F /  13.3 °C 40.1 °F /  4.5 °C 30.10in /  1019.2hPa SSE 4.0mph /  6.4km/h 9.0mph /  14.5km/h 55% 0.00in /  0mm
12:14 57.0 °F /  13.9 °C 40.5 °F /  4.7 °C 30.10in /  1019.2hPa SW 6.0mph /  9.7km/h 9.0mph /  14.5km/h 54% 0.00in /  0mm
12:19 57.8 °F /  14.3 °C 41.3 °F /  5.2 °C 30.10in /  1019.2hPa South 10.0mph /  16.1km/h 12.0mph /  19.3km/h 54% 0.00in /  0mm
12:24 57.7 °F /  14.3 °C 40.7 °F /  4.8 °C 30.09in /  1018.8hPa SSW 6.0mph /  9.7km/h 12.0mph /  19.3km/h 53% 0.00in /  0mm
12:29 58.0 °F /  14.4 °C 41.4 °F /  5.2 °C 30.09in /  1018.8hPa SSW 6.0mph /  9.7km/h 11.0mph /  17.7km/h 54% 0.00in /  0mm
12:34 57.6 °F /  14.2 °C 40.6 °F /  4.8 °C 30.08in /  1018.5hPa SSW 4.0mph /  6.4km/h 12.0mph /  19.3km/h 53% 0.00in /  0mm
12:39 57.7 °F /  14.3 °C 40.7 °F /  4.8 °C 30.08in /  1018.5hPa South 3.0mph /  4.8km/h 10.0mph /  16.1km/h 53% 0.00in /  0mm
12:44 57.8 °F /  14.3 °C 40.8 °F /  4.9 °C 30.07in /  1018.2hPa SW 7.0mph /  11.3km/h 11.0mph /  17.7km/h 53% 0.00in /  0mm
12:49 57.9 °F /  14.4 °C 40.9 °F /  4.9 °C 30.07in /  1018.2hPa SSE 2.0mph /  3.2km/h 10.0mph /  16.1km/h 53% 0.00in /  0mm
12:54 57.9 °F /  14.4 °C 40.9 °F /  4.9 °C 30.07in /  1018.2hPa SSW 7.0mph /  11.3km/h 11.0mph /  17.7km/h 53% 0.00in /  0mm
12:59 58.0 °F /  14.4 °C 41.0 °F /  5 °C 30.06in /  1017.8hPa SSW 6.0mph /  9.7km/h 11.0mph /  17.7km/h 53% 0.00in /  0mm
13:04 57.8 °F /  14.3 °C 40.8 °F /  4.9 °C 30.05in /  1017.5hPa SSW 5.0mph /  8km/h 13.0mph /  20.9km/h 53% 0.00in /  0mm
13:09 58.2 °F /  14.6 °C 41.1 °F /  5.1 °C 30.05in /  1017.5hPa SSW 5.0mph /  8km/h 13.0mph /  20.9km/h 53% 0.00in /  0mm
13:14 58.4 °F /  14.7 °C 40.8 °F /  4.9 °C 30.05in /  1017.5hPa South 5.0mph /  8km/h 10.0mph /  16.1km/h 52% 0.00in /  0mm
13:19 58.7 °F /  14.8 °C 41.6 °F /  5.3 °C 30.04in /  1017.2hPa South 5.0mph /  8km/h 9.0mph /  14.5km/h 53% 0.00in /  0mm
13:24 59.1 °F /  15.1 °C 41.5 °F /  5.3 °C 30.03in /  1016.8hPa South 4.0mph /  6.4km/h 9.0mph /  14.5km/h 52% 0.00in /  0mm
13:29 59.3 °F /  15.2 °C 41.2 °F /  5.1 °C 30.03in /  1016.8hPa SSW 7.0mph /  11.3km/h 11.0mph /  17.7km/h 51% 0.00in /  0mm
13:34 59.5 °F /  15.3 °C 41.3 °F /  5.2 °C 30.03in /  1016.8hPa WSW 3.0mph /  4.8km/h 11.0mph /  17.7km/h 51% 0.00in /  0mm
13:39 59.2 °F /  15.1 °C 40.6 °F /  4.8 °C 30.02in /  1016.5hPa SSW 7.0mph /  11.3km/h 13.0mph /  20.9km/h 50% 0.00in /  0mm
13:44 58.9 °F /  14.9 °C 40.8 °F /  4.9 °C 30.01in /  1016.1hPa SSE 3.0mph /  4.8km/h 10.0mph /  16.1km/h 51% 0.00in /  0mm
13:49 58.9 °F /  14.9 °C 40.8 °F /  4.9 °C 30.01in /  1016.1hPa WSW 5.0mph /  8km/h 17.0mph /  27.4km/h 51% 0.00in /  0mm
13:54 59.1 °F /  15.1 °C 41.0 °F /  5 °C 30.01in /  1016.1hPa South 3.0mph /  4.8km/h 12.0mph /  19.3km/h 51% 0.00in /  0mm
13:59 59.3 °F /  15.2 °C 41.2 °F /  5.1 °C 30.00in /  1015.8hPa South 6.0mph /  9.7km/h 14.0mph /  22.5km/h 51% 0.00in /  0mm
14:04 59.1 °F /  15.1 °C 40.5 °F /  4.7 °C 30.00in /  1015.8hPa South 7.0mph /  11.3km/h 14.0mph /  22.5km/h 50% 0.00in /  0mm
14:09 58.8 °F /  14.9 °C 40.2 °F /  4.6 °C 30.00in /  1015.8hPa South 8.0mph /  12.9km/h 15.0mph /  24.1km/h 50% 0.00in /  0mm
14:14 58.5 °F /  14.7 °C 39.9 °F /  4.4 °C 29.99in /  1015.5hPa South 7.0mph /  11.3km/h 15.0mph /  24.1km/h 50% 0.00in /  0mm
14:19 58.4 °F /  14.7 °C 40.3 °F /  4.6 °C 29.98in /  1015.1hPa South 6.0mph /  9.7km/h 12.0mph /  19.3km/h 51% 0.00in /  0mm
14:24 58.4 °F /  14.7 °C 40.3 °F /  4.6 °C 29.98in /  1015.1hPa South 6.0mph /  9.7km/h 10.0mph /  16.1km/h 51% 0.00in /  0mm
14:29 58.5 °F /  14.7 °C 39.9 °F /  4.4 °C 29.98in /  1015.1hPa South 5.0mph /  8km/h 12.0mph /  19.3km/h 50% 0.00in /  0mm
14:34 58.4 °F /  14.7 °C 39.8 °F /  4.3 °C 29.98in /  1015.1hPa South 6.0mph /  9.7km/h 12.0mph /  19.3km/h 50% 0.00in /  0mm
14:39 58.4 °F /  14.7 °C 39.8 °F /  4.3 °C 29.98in /  1015.1hPa South 5.0mph /  8km/h 9.0mph /  14.5km/h 50% 0.00in /  0mm
14:44 58.3 °F /  14.6 °C 39.7 °F /  4.3 °C 29.98in /  1015.1hPa SSE 4.0mph /  6.4km/h 7.0mph /  11.3km/h 50% 0.00in /  0mm
14:49 58.3 °F /  14.6 °C 39.2 °F /  4 °C 29.98in /  1015.1hPa South 3.0mph /  4.8km/h 9.0mph /  14.5km/h 49% 0.00in /  0mm
14:54 58.4 °F /  14.7 °C 39.3 °F /  4.1 °C 29.97in /  1014.8hPa SSE 10.0mph /  16.1km/h 10.0mph /  16.1km/h 49% 0.00in /  0mm
14:59 58.5 °F /  14.7 °C 39.4 °F /  4.1 °C 29.97in /  1014.8hPa South 7.0mph /  11.3km/h 11.0mph /  17.7km/h 49% 0.00in /  0mm
15:04 58.6 °F /  14.8 °C 39.0 °F /  3.9 °C 29.97in /  1014.8hPa South 3.0mph /  4.8km/h 8.0mph /  12.9km/h 48% 0.00in /  0mm
15:09 58.5 °F /  14.7 °C 38.9 °F /  3.8 °C 29.96in /  1014.4hPa South 5.0mph /  8km/h 10.0mph /  16.1km/h 48% 0.00in /  0mm
15:14 58.4 °F /  14.7 °C 39.3 °F /  4.1 °C 29.96in /  1014.4hPa South 5.0mph /  8km/h 10.0mph /  16.1km/h 49% 0.00in /  0mm
15:19 58.5 °F /  14.7 °C 39.4 °F /  4.1 °C 29.95in /  1014.1hPa South 4.0mph /  6.4km/h 9.0mph /  14.5km/h 49% 0.00in /  0mm
15:24 58.5 °F /  14.7 °C 39.4 °F /  4.1 °C 29.95in /  1014.1hPa South 5.0mph /  8km/h 9.0mph /  14.5km/h 49% 0.00in /  0mm
15:29 58.4 °F /  14.7 °C 39.3 °F /  4.1 °C 29.95in /  1014.1hPa South 4.0mph /  6.4km/h 9.0mph /  14.5km/h 49% 0.00in /  0mm
15:39 58.5 °F /  14.7 °C 39.4 °F /  4.1 °C 29.94in /  1013.8hPa South 3.0mph /  4.8km/h 7.0mph /  11.3km/h 49% 0.00in /  0mm
15:44 58.5 °F /  14.7 °C 39.4 °F /  4.1 °C 29.94in /  1013.8hPa SSE 2.0mph /  3.2km/h 6.0mph /  9.7km/h 49% 0.00in /  0mm
15:49 58.5 °F /  14.7 °C 39.9 °F /  4.4 °C 29.93in /  1013.4hPa SE 3.0mph /  4.8km/h 5.0mph /  8km/h 50% 0.00in /  0mm
15:54 58.5 °F /  14.7 °C 39.4 °F /  4.1 °C 29.93in /  1013.4hPa SSE 3.0mph /  4.8km/h 4.0mph /  6.4km/h 49% 0.00in /  0mm
15:59 58.5 °F /  14.7 °C 39.4 °F /  4.1 °C 29.92in /  1013.1hPa SSE 2.0mph /  3.2km/h 6.0mph /  9.7km/h 49% 0.00in /  0mm
16:04 58.4 °F /  14.7 °C 39.8 °F /  4.3 °C 29.92in /  1013.1hPa South 3.0mph /  4.8km/h 6.0mph /  9.7km/h 50% 0.00in /  0mm
16:09 58.3 °F /  14.6 °C 39.7 °F /  4.3 °C 29.92in /  1013.1hPa SSE 1.0mph /  1.6km/h 6.0mph /  9.7km/h 50% 0.00in /  0mm
16:14 58.4 °F /  14.7 °C 39.8 °F /  4.3 °C 29.92in /  1013.1hPa SSE 2.0mph /  3.2km/h 6.0mph /  9.7km/h 50% 0.00in /  0mm
16:19 58.4 °F /  14.7 °C 39.3 °F /  4.1 °C 29.92in /  1013.1hPa SSE 2.0mph /  3.2km/h 4.0mph /  6.4km/h 49% 0.00in /  0mm
16:24 58.4 °F /  14.7 °C 39.3 °F /  4.1 °C 29.92in /  1013.1hPa SSE 2.0mph /  3.2km/h 5.0mph /  8km/h 49% 0.00in /  0mm
16:29 58.4 °F /  14.7 °C 39.3 °F /  4.1 °C 29.92in /  1013.1hPa SSE 2.0mph /  3.2km/h 5.0mph /  8km/h 49% 0.00in /  0mm
16:34 58.4 °F /  14.7 °C 39.8 °F /  4.3 °C 29.91in /  1012.8hPa SSE 2.0mph /  3.2km/h 5.0mph /  8km/h 50% 0.00in /  0mm
16:39 58.4 °F /  14.7 °C 39.3 °F /  4.1 °C 29.91in /  1012.8hPa SE 2.0mph /  3.2km/h 5.0mph /  8km/h 49% 0.00in /  0mm
16:44 58.2 °F /  14.6 °C 39.6 °F /  4.2 °C 29.91in /  1012.8hPa South 1.0mph /  1.6km/h 3.0mph /  4.8km/h 50% 0.00in /  0mm
16:49 58.3 °F /  14.6 °C 39.2 °F /  4 °C 29.91in /  1012.8hPa SE 2.0mph /  3.2km/h 4.0mph /  6.4km/h 49% 0.00in /  0mm
16:54 58.4 °F /  14.7 °C 39.3 °F /  4.1 °C 29.91in /  1012.8hPa South 1.0mph /  1.6km/h 3.0mph /  4.8km/h 49% 0.00in /  0mm
16:59 58.4 °F /  14.7 °C 39.3 °F /  4.1 °C 29.91in /  1012.8hPa SE 5.0mph /  8km/h 7.0mph /  11.3km/h 49% 0.00in /  0mm
17:04 58.5 °F /  14.7 °C 39.4 °F /  4.1 °C 29.91in /  1012.8hPa SSE 2.0mph /  3.2km/h 5.0mph /  8km/h 49% 0.00in /  0mm
17:09 58.4 °F /  14.7 °C 39.3 °F /  4.1 °C 29.91in /  1012.8hPa SSW 1.0mph /  1.6km/h 6.0mph /  9.7km/h 49% 0.00in /  0mm
17:14 58.4 °F /  14.7 °C 39.8 °F /  4.3 °C 29.90in /  1012.4hPa SSE 1.0mph /  1.6km/h 5.0mph /  8km/h 50% 0.00in /  0mm
17:19 58.3 °F /  14.6 °C 39.7 °F /  4.3 °C 29.90in /  1012.4hPa South 3.0mph /  4.8km/h 6.0mph /  9.7km/h 50% 0.00in /  0mm
17:24 58.1 °F /  14.5 °C 39.5 °F /  4.2 °C 29.90in /  1012.4hPa South 3.0mph /  4.8km/h 6.0mph /  9.7km/h 50% 0.00in /  0mm
17:29 58.1 °F /  14.5 °C 40.1 °F /  4.5 °C 29.90in /  1012.4hPa South 3.0mph /  4.8km/h 7.0mph /  11.3km/h 51% 0.00in /  0mm
17:34 58.2 °F /  14.6 °C 40.1 °F /  4.5 °C 29.89in /  1012.1hPa SSW 3.0mph /  4.8km/h 7.0mph /  11.3km/h 51% 0.00in /  0mm
17:39 58.1 °F /  14.5 °C 40.6 °F /  4.8 °C 29.90in /  1012.4hPa SSW 2.0mph /  3.2km/h 7.0mph /  11.3km/h 52% 0.00in /  0mm
17:44 58.5 °F /  14.7 °C 40.9 °F /  4.9 °C 29.89in /  1012.1hPa SSW 4.0mph /  6.4km/h 9.0mph /  14.5km/h 52% 0.00in /  0mm
17:49 58.7 °F /  14.8 °C 41.1 °F /  5.1 °C 29.89in /  1012.1hPa SSW 5.0mph /  8km/h 10.0mph /  16.1km/h 52% 0.00in /  0mm
17:54 58.6 °F /  14.8 °C 41.5 °F /  5.3 °C 29.89in /  1012.1hPa SSW 4.0mph /  6.4km/h 7.0mph /  11.3km/h 53% 0.00in /  0mm
17:59 58.6 °F /  14.8 °C 41.5 °F /  5.3 °C 29.89in /  1012.1hPa SSW 2.0mph /  3.2km/h 9.0mph /  14.5km/h 53% 0.00in /  0mm
18:04 58.6 °F /  14.8 °C 42.0 °F /  5.6 °C 29.89in /  1012.1hPa SW 3.0mph /  4.8km/h 7.0mph /  11.3km/h 54% 0.00in /  0mm
18:09 58.6 °F /  14.8 °C 42.0 °F /  5.6 °C 29.89in /  1012.1hPa SW 4.0mph /  6.4km/h 8.0mph /  12.9km/h 54% 0.00in /  0mm
18:14 58.6 °F /  14.8 °C 42.5 °F /  5.8 °C 29.88in /  1011.7hPa SSW 3.0mph /  4.8km/h 8.0mph /  12.9km/h 55% 0.00in /  0mm
18:19 58.7 °F /  14.8 °C 42.6 °F /  5.9 °C 29.89in /  1012.1hPa SSW 5.0mph /  8km/h 12.0mph /  19.3km/h 55% 0.00in /  0mm
18:24 58.7 °F /  14.8 °C 42.6 °F /  5.9 °C 29.89in /  1012.1hPa SSW 5.0mph /  8km/h 12.0mph /  19.3km/h 55% 0.00in /  0mm
18:29 58.6 °F /  14.8 °C 42.9 °F /  6.1 °C 29.89in /  1012.1hPa SSW 4.0mph /  6.4km/h 11.0mph /  17.7km/h 56% 0.00in /  0mm
18:34 58.6 °F /  14.8 °C 43.4 °F /  6.3 °C 29.88in /  1011.7hPa SSW 5.0mph /  8km/h 11.0mph /  17.7km/h 57% 0.00in /  0mm
18:39 58.6 °F /  14.8 °C 43.4 °F /  6.3 °C 29.88in /  1011.7hPa SSW 5.0mph /  8km/h 13.0mph /  20.9km/h 57% 0.00in /  0mm
18:44 58.5 °F /  14.7 °C 43.8 °F /  6.6 °C 29.87in /  1011.4hPa SSW 6.0mph /  9.7km/h 10.0mph /  16.1km/h 58% 0.00in /  0mm
18:49 58.4 °F /  14.7 °C 44.1 °F /  6.7 °C 29.86in /  1011.1hPa SW 6.0mph /  9.7km/h 9.0mph /  14.5km/h 59% 0.00in /  0mm
18:54 58.5 °F /  14.7 °C 44.2 °F /  6.8 °C 29.86in /  1011.1hPa SSW 6.0mph /  9.7km/h 12.0mph /  19.3km/h 59% 0.00in /  0mm
18:59 58.4 °F /  14.7 °C 44.6 °F /  7 °C 29.86in /  1011.1hPa South 6.0mph /  9.7km/h 12.0mph /  19.3km/h 60% 0.00in /  0mm
19:04 58.3 °F /  14.6 °C 44.5 °F /  6.9 °C 29.85in /  1010.7hPa South 5.0mph /  8km/h 10.0mph /  16.1km/h 60% 0.00in /  0mm
19:09 58.2 °F /  14.6 °C 44.4 °F /  6.9 °C 29.85in /  1010.7hPa South 11.0mph /  17.7km/h 14.0mph /  22.5km/h 60% 0.00in /  0mm
19:14 58.3 °F /  14.6 °C 44.5 °F /  6.9 °C 29.85in /  1010.7hPa SSE 6.0mph /  9.7km/h 15.0mph /  24.1km/h 60% 0.00in /  0mm
19:19 58.3 °F /  14.6 °C 44.5 °F /  6.9 °C 29.84in /  1010.4hPa South 7.0mph /  11.3km/h 11.0mph /  17.7km/h 60% 0.00in /  0mm
19:24 58.2 °F /  14.6 °C 44.4 °F /  6.9 °C 29.85in /  1010.7hPa SSW 5.0mph /  8km/h 11.0mph /  17.7km/h 60% 0.00in /  0mm
19:29 58.3 °F /  14.6 °C 44.5 °F /  6.9 °C 29.85in /  1010.7hPa SSW 5.0mph /  8km/h 10.0mph /  16.1km/h 60% 0.00in /  0mm
19:34 58.4 °F /  14.7 °C 44.1 °F /  6.7 °C 29.84in /  1010.4hPa SSW 5.0mph /  8km/h 10.0mph /  16.1km/h 59% 0.00in /  0mm
19:39 58.3 °F /  14.6 °C 44.5 °F /  6.9 °C 29.84in /  1010.4hPa South 8.0mph /  12.9km/h 9.0mph /  14.5km/h 60% 0.00in /  0mm
19:44 58.2 °F /  14.6 °C 44.4 °F /  6.9 °C 29.83in /  1010hPa South 14.0mph /  22.5km/h 14.0mph /  22.5km/h 60% 0.00in /  0mm
19:49 58.2 °F /  14.6 °C 44.4 °F /  6.9 °C 29.83in /  1010hPa SSW 3.0mph /  4.8km/h 14.0mph /  22.5km/h 60% 0.00in /  0mm
19:54 58.2 °F /  14.6 °C 44.4 °F /  6.9 °C 29.83in /  1010hPa SSW 6.0mph /  9.7km/h 13.0mph /  20.9km/h 60% 0.00in /  0mm
19:59 58.3 °F /  14.6 °C 44.5 °F /  6.9 °C 29.83in /  1010hPa South 6.0mph /  9.7km/h 13.0mph /  20.9km/h 60% 0.00in /  0mm
20:04 58.3 °F /  14.6 °C 44.9 °F /  7.2 °C 29.83in /  1010hPa SSW 6.0mph /  9.7km/h 13.0mph /  20.9km/h 61% 0.00in /  0mm
20:09 58.4 °F /  14.7 °C 45.0 °F /  7.2 °C 29.83in /  1010hPa SSW 7.0mph /  11.3km/h 12.0mph /  19.3km/h 61% 0.00in /  0mm
20:14 58.4 °F /  14.7 °C 45.0 °F /  7.2 °C 29.83in /  1010hPa SW 2.0mph /  3.2km/h 12.0mph /  19.3km/h 61% 0.00in /  0mm
20:19 58.4 °F /  14.7 °C 45.0 °F /  7.2 °C 29.82in /  1009.7hPa SSW 6.0mph /  9.7km/h 13.0mph /  20.9km/h 61% 0.00in /  0mm
20:24 58.4 °F /  14.7 °C 45.4 °F /  7.4 °C 29.82in /  1009.7hPa SSW 7.0mph /  11.3km/h 10.0mph /  16.1km/h 62% 0.00in /  0mm
20:29 58.3 °F /  14.6 °C 45.3 °F /  7.4 °C 29.82in /  1009.7hPa SSW 6.0mph /  9.7km/h 12.0mph /  19.3km/h 62% 0.00in /  0mm
20:34 58.3 °F /  14.6 °C 45.3 °F /  7.4 °C 29.82in /  1009.7hPa SSW 7.0mph /  11.3km/h 12.0mph /  19.3km/h 62% 0.00in /  0mm
20:39 58.2 °F /  14.6 °C 45.7 °F /  7.6 °C 29.81in /  1009.4hPa SSW 7.0mph /  11.3km/h 13.0mph /  20.9km/h 63% 0.00in /  0mm
20:44 58.2 °F /  14.6 °C 46.1 °F /  7.8 °C 29.81in /  1009.4hPa SSW 7.0mph /  11.3km/h 13.0mph /  20.9km/h 64% 0.00in /  0mm
20:49 58.1 °F /  14.5 °C 46.0 °F /  7.8 °C 29.80in /  1009hPa SW 4.0mph /  6.4km/h 13.0mph /  20.9km/h 64% 0.00in /  0mm
20:54 58.0 °F /  14.4 °C 46.3 °F /  7.9 °C 29.80in /  1009hPa South 9.0mph /  14.5km/h 12.0mph /  19.3km/h 65% 0.00in /  0mm
20:59 57.8 °F /  14.3 °C 46.5 °F /  8.1 °C 29.79in /  1008.7hPa SSW 7.0mph /  11.3km/h 13.0mph /  20.9km/h 66% 0.00in /  0mm
21:04 57.8 °F /  14.3 °C 46.5 °F /  8.1 °C 29.79in /  1008.7hPa SSW 3.0mph /  4.8km/h 12.0mph /  19.3km/h 66% 0.00in /  0mm
21:09 57.8 °F /  14.3 °C 46.9 °F /  8.3 °C 29.79in /  1008.7hPa South 4.0mph /  6.4km/h 13.0mph /  20.9km/h 67% 0.00in /  0mm
21:14 57.9 °F /  14.4 °C 47.0 °F /  8.3 °C 29.80in /  1009hPa SW 3.0mph /  4.8km/h 12.0mph /  19.3km/h 67% 0.00in /  0mm
21:19 58.0 °F /  14.4 °C 47.1 °F /  8.4 °C 29.79in /  1008.7hPa South 8.0mph /  12.9km/h 13.0mph /  20.9km/h 67% 0.00in /  0mm
21:24 58.0 °F /  14.4 °C 47.5 °F /  8.6 °C 29.79in /  1008.7hPa SW 6.0mph /  9.7km/h 13.0mph /  20.9km/h 68% 0.00in /  0mm
21:29 58.1 °F /  14.5 °C 47.6 °F /  8.7 °C 29.79in /  1008.7hPa SSW 6.0mph /  9.7km/h 13.0mph /  20.9km/h 68% 0.00in /  0mm
21:34 58.1 °F /  14.5 °C 47.6 °F /  8.7 °C 29.79in /  1008.7hPa SSW 6.0mph /  9.7km/h 14.0mph /  22.5km/h 68% 0.00in /  0mm
21:39 58.0 °F /  14.4 °C 47.5 °F /  8.6 °C 29.79in /  1008.7hPa SSW 6.0mph /  9.7km/h 14.0mph /  22.5km/h 68% 0.00in /  0mm
21:44 58.0 °F /  14.4 °C 47.9 °F /  8.8 °C 29.79in /  1008.7hPa SSW 6.0mph /  9.7km/h 15.0mph /  24.1km/h 69% 0.00in /  0mm
21:49 57.9 °F /  14.4 °C 47.8 °F /  8.8 °C 29.78in /  1008.4hPa SSW 7.0mph /  11.3km/h 15.0mph /  24.1km/h 69% 0.00in /  0mm
21:54 57.9 °F /  14.4 °C 47.8 °F /  8.8 °C 29.78in /  1008.4hPa SSW 4.0mph /  6.4km/h 15.0mph /  24.1km/h 69% 0.00in /  0mm
21:59 57.9 °F /  14.4 °C 48.2 °F /  9 °C 29.78in /  1008.4hPa SSW 6.0mph /  9.7km/h 15.0mph /  24.1km/h 70% 0.00in /  0mm
22:04 58.0 °F /  14.4 °C 48.3 °F /  9.1 °C 29.78in /  1008.4hPa SSW 13.0mph /  20.9km/h 16.0mph /  25.7km/h 70% 0.00in /  0mm
22:09 58.0 °F /  14.4 °C 48.3 °F /  9.1 °C 29.77in /  1008hPa SSW 7.0mph /  11.3km/h 17.0mph /  27.4km/h 70% 0.00in /  0mm
22:14 58.0 °F /  14.4 °C 48.3 °F /  9.1 °C 29.77in /  1008hPa SSW 7.0mph /  11.3km/h 15.0mph /  24.1km/h 70% 0.00in /  0mm
22:19 57.9 °F /  14.4 °C 48.2 °F /  9 °C 29.77in /  1008hPa SW 8.0mph /  12.9km/h 15.0mph /  24.1km/h 70% 0.00in /  0mm
22:24 57.9 °F /  14.4 °C 48.2 °F /  9 °C 29.76in /  1007.7hPa SSE 5.0mph /  8km/h 15.0mph /  24.1km/h 70% 0.00in /  0mm
22:29 57.7 °F /  14.3 °C 48.4 °F /  9.1 °C 29.76in /  1007.7hPa SSE 3.0mph /  4.8km/h 14.0mph /  22.5km/h 71% 0.00in /  0mm
22:34 57.6 °F /  14.2 °C 48.3 °F /  9.1 °C 29.75in /  1007.3hPa SSW 6.0mph /  9.7km/h 14.0mph /  22.5km/h 71% 0.00in /  0mm
22:39 57.4 °F /  14.1 °C 48.4 °F /  9.1 °C 29.75in /  1007.3hPa SSW 6.0mph /  9.7km/h 15.0mph /  24.1km/h 72% 0.00in /  0mm
22:44 57.5 °F /  14.2 °C 48.5 °F /  9.2 °C 29.75in /  1007.3hPa SSW 6.0mph /  9.7km/h 15.0mph /  24.1km/h 72% 0.00in /  0mm
22:49 57.6 °F /  14.2 °C 49.0 °F /  9.4 °C 29.74in /  1007hPa SSW 5.0mph /  8km/h 11.0mph /  17.7km/h 73% 0.00in /  0mm
22:54 57.7 °F /  14.3 °C 49.1 °F /  9.5 °C 29.75in /  1007.3hPa SSW 6.0mph /  9.7km/h 16.0mph /  25.7km/h 73% 0.00in /  0mm
22:59 57.9 °F /  14.4 °C 49.3 °F /  9.6 °C 29.74in /  1007hPa SW 4.0mph /  6.4km/h 11.0mph /  17.7km/h 73% 0.00in /  0mm
23:04 57.8 °F /  14.3 °C 49.2 °F /  9.6 °C 29.73in /  1006.7hPa SSW 6.0mph /  9.7km/h 12.0mph /  19.3km/h 73% 0.00in /  0mm
23:09 57.8 °F /  14.3 °C 49.6 °F /  9.8 °C 29.73in /  1006.7hPa SSW 6.0mph /  9.7km/h 12.0mph /  19.3km/h 74% 0.00in /  0mm
23:14 57.7 °F /  14.3 °C 49.5 °F /  9.7 °C 29.73in /  1006.7hPa SW 5.0mph /  8km/h 11.0mph /  17.7km/h 74% 0.00in /  0mm
23:19 57.7 °F /  14.3 °C 49.5 °F /  9.7 °C 29.73in /  1006.7hPa SW 11.0mph /  17.7km/h 15.0mph /  24.1km/h 74% 0.00in /  0mm
23:24 57.8 °F /  14.3 °C 49.9 °F /  9.9 °C 29.72in /  1006.3hPa SSW 9.0mph /  14.5km/h 15.0mph /  24.1km/h 75% 0.00in /  0mm
23:29 57.8 °F /  14.3 °C 49.9 °F /  9.9 °C 29.72in /  1006.3hPa SSW 7.0mph /  11.3km/h 18.0mph /  29km/h 75% 0.00in /  0mm
23:34 57.9 °F /  14.4 °C 50.0 °F /  10 °C 29.72in /  1006.3hPa WSW 11.0mph /  17.7km/h 15.0mph /  24.1km/h 75% 0.00in /  0mm
23:39 57.8 °F /  14.3 °C 49.9 °F /  9.9 °C 29.72in /  1006.3hPa SSW 7.0mph /  11.3km/h 15.0mph /  24.1km/h 75% 0.00in /  0mm
23:44 57.7 °F /  14.3 °C 49.8 °F /  9.9 °C 29.72in /  1006.3hPa SSW 6.0mph /  9.7km/h 14.0mph /  22.5km/h 75% 0.00in /  0mm
23:49 57.8 °F /  14.3 °C 50.3 °F /  10.2 °C 29.72in /  1006.3hPa SSW 6.0mph /  9.7km/h 15.0mph /  24.1km/h 76% 0.00in /  0mm
23:54 57.8 °F /  14.3 °C 50.3 °F /  10.2 °C 29.72in /  1006.3hPa SSW 7.0mph /  11.3km/h 15.0mph /  24.1km/h 76% 0.00in /  0mm
23:59 57.8 °F /  14.3 °C 50.3 °F /  10.2 °C 29.72in /  1006.3hPa West 3.0mph /  4.8km/h 14.0mph /  22.5km/h 76% 0.00in /  0mm
Buffalo, New York, USA
Compliments of Weather Underground - 2.5 mb